Time;durP1;ratioP1;P1;durP2;ratioP2;P2;SDS_P1;SDS_P2;PMS_P1;PMS_P2;Temp;Humidity;BMP_temperature;BMP_pressure;BME280_temperature;BME280_humidity;BME280_pressure;Samples;Min_cycle;Max_cycle;Signal;HPM_P1;HPM_P2
2022/03/28 00:00:56;;;;;;;0.43;0.43;;;6.20;99.90;;;;;;4995234;28;20048;-72
2022/03/28 00:03:22;;;;;;;0.88;0.88;;;6.20;99.90;;;;;;5011942;28;20496;-72
2022/03/28 00:05:47;;;;;;;0.40;0.40;;;6.20;99.90;;;;;;4995126;28;20099;-72
2022/03/28 00:08:13;;;;;;;1.45;1.35;;;6.20;99.90;;;;;;5008861;28;20077;-72
2022/03/28 00:10:39;;;;;;;0.73;0.73;;;6.20;99.90;;;;;;4994036;28;20065;-72
2022/03/28 00:13:05;;;;;;;1.27;1.00;;;6.20;99.90;;;;;;4992424;28;20045;-72
2022/03/28 00:15:30;;;;;;;3.42;2.13;;;6.20;99.90;;;;;;5007213;28;20094;-72
2022/03/28 00:17:56;;;;;;;3.00;2.05;;;6.20;99.90;;;;;;5009935;28;20464;-72
2022/03/28 00:20:23;;;;;;;1.92;1.70;;;6.10;99.90;;;;;;5001621;28;20041;-72
2022/03/28 00:22:49;;;;;;;1.45;1.02;;;6.10;99.90;;;;;;5000372;28;20080;-72
2022/03/28 00:25:15;;;;;;;4.15;2.70;;;6.10;99.90;;;;;;4991600;28;20445;-72
2022/03/28 00:27:40;;;;;;;2.25;1.67;;;6.10;99.90;;;;;;5023880;28;20423;-72
2022/03/28 00:30:08;;;;;;;3.45;2.08;;;6.20;99.90;;;;;;4986424;28;20045;-72
2022/03/28 00:32:33;;;;;;;4.30;3.42;;;6.10;99.90;;;;;;5007578;28;20575;-72
2022/03/28 00:35:00;;;;;;;10.75;3.08;;;6.10;99.90;;;;;;5007637;28;20041;-72
2022/03/28 00:37:26;;;;;;;0.30;0.30;;;6.20;99.90;;;;;;5010533;28;20052;-72
2022/03/28 00:39:51;;;;;;;6.97;2.00;;;6.10;99.90;;;;;;5011862;28;20512;-72
2022/03/28 00:42:17;;;;;;;0.68;0.68;;;6.10;99.90;;;;;;4997035;28;20045;-72
2022/03/28 00:44:43;;;;;;;0.40;0.40;;;6.10;99.90;;;;;;5011104;28;20041;-72
2022/03/28 00:47:09;;;;;;;1.52;1.42;;;6.10;99.90;;;;;;4994646;28;20417;-72
2022/03/28 00:49:35;;;;;;;0.68;0.68;;;6.00;99.90;;;;;;5010977;28;20045;-73
2022/03/28 00:52:02;;;;;;;0.40;0.40;;;6.00;99.90;;;;;;5009467;28;20052;-72
2022/03/28 00:54:28;;;;;;;1.33;1.23;;;6.00;99.90;;;;;;5010671;28;20049;-72
2022/03/28 00:56:55;;;;;;;1.20;1.13;;;6.10;99.90;;;;;;5010512;28;20045;-72
2022/03/28 00:59:20;;;;;;;3.70;2.40;;;6.10;99.90;;;;;;5009768;28;20402;-72
2022/03/28 01:01:46;;;;;;;2.05;1.55;;;6.10;99.90;;;;;;5010078;28;20057;-73
2022/03/28 01:04:12;;;;;;;1.75;1.25;;;6.00;99.90;;;;;;5010049;28;20054;-72
2022/03/28 01:06:39;;;;;;;1.13;1.10;;;6.10;99.90;;;;;;4992964;28;20106;-72
2022/03/28 01:09:05;;;;;;;1.48;1.38;;;6.00;99.90;;;;;;4996504;28;20178;-72
2022/03/28 01:11:35;;;;;;;0.85;0.85;;;6.00;99.90;;;;;;4994052;28;20064;-72
2022/03/28 01:14:01;;;;;;;3.70;2.78;;;6.00;99.90;;;;;;4991645;28;20033;-72
2022/03/28 01:16:31;;;;;;;3.00;1.65;;;6.00;99.90;;;;;;4993736;28;20090;-72
2022/03/28 01:18:56;;;;;;;1.40;1.30;;;6.00;99.90;;;;;;5003260;28;20049;-72
2022/03/28 01:21:22;;;;;;;0.70;0.70;;;6.00;99.90;;;;;;4994295;28;20474;-72
2022/03/28 01:23:47;;;;;;;1.08;1.08;;;6.00;99.90;;;;;;4985957;28;20048;-72
2022/03/28 01:26:15;;;;;;;3.03;1.70;;;5.90;99.90;;;;;;4994005;28;20049;-72
2022/03/28 01:28:41;;;;;;;0.40;0.40;;;5.90;99.90;;;;;;4994356;28;20045;-72
2022/03/28 01:31:07;;;;;;;0.50;0.50;;;5.90;99.90;;;;;;4993810;28;20049;-72
2022/03/28 01:33:35;;;;;;;0.93;0.93;;;5.90;99.90;;;;;;5010334;28;20095;-73
2022/03/28 01:36:00;;;;;;;0.98;0.98;;;5.90;99.90;;;;;;4990656;28;20054;-73
2022/03/28 01:38:26;;;;;;;1.25;1.23;;;5.90;99.90;;;;;;5007792;28;20043;-72
2022/03/28 01:40:52;;;;;;;0.60;0.60;;;5.90;99.90;;;;;;4994211;28;20040;-72
2022/03/28 01:43:20;;;;;;;2.22;2.03;;;5.90;99.90;;;;;;5026454;28;20045;-72
2022/03/28 01:45:46;;;;;;;2.25;2.08;;;5.90;99.90;;;;;;4993315;28;20041;-72
2022/03/28 01:48:12;;;;;;;0.80;0.80;;;5.90;99.90;;;;;;4993634;28;20061;-72
2022/03/28 01:50:39;;;;;;;1.35;1.30;;;5.90;99.90;;;;;;4993492;28;20037;-72
2022/03/28 01:53:05;;;;;;;2.38;1.42;;;5.90;99.90;;;;;;4993566;28;20038;-72
2022/03/28 01:55:31;;;;;;;1.00;1.00;;;5.90;99.90;;;;;;5009878;28;20037;-72
2022/03/28 01:57:57;;;;;;;1.92;1.80;;;5.90;99.90;;;;;;5025730;28;20084;-72
2022/03/28 02:00:27;;;;;;;2.08;1.35;;;5.90;99.90;;;;;;5009463;28;20069;-72
2022/03/28 02:02:53;;;;;;;4.13;1.90;;;5.90;99.90;;;;;;4994105;28;20068;-72
2022/03/28 02:05:19;;;;;;;1.05;1.05;;;5.90;99.90;;;;;;5009790;28;20099;-72
2022/03/28 02:07:47;;;;;;;1.55;1.45;;;5.80;99.90;;;;;;5009212;28;20073;-72
2022/03/28 02:10:15;;;;;;;0.50;0.50;;;5.80;99.90;;;;;;4993607;28;20037;-73
2022/03/28 02:12:41;;;;;;;0.50;0.50;;;5.90;99.90;;;;;;4989685;28;20066;-72
2022/03/28 02:15:08;;;;;;;0.55;0.55;;;5.90;99.90;;;;;;5009866;28;20488;-72
2022/03/28 02:17:34;;;;;;;0.40;0.40;;;5.80;99.90;;;;;;5008515;28;20052;-72
2022/03/28 02:20:01;;;;;;;4.03;1.13;;;5.80;99.90;;;;;;5022266;28;20571;-72
2022/03/28 02:22:26;;;;;;;0.60;0.60;;;5.80;99.90;;;;;;4996391;28;20049;-72
2022/03/28 02:24:52;;;;;;;0.50;0.50;;;5.80;99.90;;;;;;4997234;28;20061;-72
2022/03/28 02:27:18;;;;;;;0.50;0.50;;;5.80;99.90;;;;;;5013212;28;20060;-72
2022/03/28 02:29:43;;;;;;;0.40;0.40;;;5.80;99.90;;;;;;4996603;28;20037;-72
2022/03/28 02:32:09;;;;;;;0.40;0.40;;;5.80;99.90;;;;;;5018512;28;20037;-72
2022/03/28 02:34:35;;;;;;;1.55;1.45;;;5.80;99.90;;;;;;4996551;28;20041;-72
2022/03/28 02:37:01;;;;;;;1.30;1.20;;;5.80;99.90;;;;;;5013368;28;20507;-72
2022/03/28 02:39:27;;;;;;;1.35;1.25;;;5.80;99.90;;;;;;4997406;28;20063;-72
2022/03/28 02:41:53;;;;;;;1.08;1.08;;;5.80;99.90;;;;;;4996488;28;20033;-72
2022/03/28 02:44:19;;;;;;;2.80;1.25;;;5.80;99.90;;;;;;4996298;28;20052;-72
2022/03/28 02:46:46;;;;;;;0.40;0.40;;;5.80;99.90;;;;;;5013006;28;20041;-72
2022/03/28 02:49:12;;;;;;;0.90;0.90;;;5.80;99.90;;;;;;4996616;28;20508;-72
2022/03/28 02:51:37;;;;;;;10.23;2.05;;;5.80;99.90;;;;;;4995863;28;20045;-72
2022/03/28 02:54:03;;;;;;;0.93;0.93;;;5.90;99.90;;;;;;5012997;28;20022;-72
2022/03/28 02:56:29;;;;;;;1.08;1.08;;;5.80;99.90;;;;;;4996531;28;20041;-72
2022/03/28 02:58:54;;;;;;;1.42;1.33;;;5.90;99.90;;;;;;5012988;28;20049;-72
2022/03/28 03:01:20;;;;;;;0.40;0.40;;;5.80;99.90;;;;;;5012476;28;20049;-72
2022/03/28 03:03:45;;;;;;;0.50;0.50;;;5.80;99.90;;;;;;5012680;28;20128;-72
2022/03/28 03:06:11;;;;;;;0.40;0.40;;;5.80;99.90;;;;;;4995839;28;20154;-72
2022/03/28 03:08:36;;;;;;;0.40;0.40;;;5.80;99.90;;;;;;4996695;28;20048;-72
2022/03/28 03:11:02;;;;;;;2.20;2.00;;;5.80;99.90;;;;;;5012532;28;20497;-72
2022/03/28 03:13:28;;;;;;;0.80;0.80;;;5.80;99.90;;;;;;4996115;28;20252;-72
2022/03/28 03:15:53;;;;;;;0.40;0.40;;;5.80;99.90;;;;;;5009399;28;20044;-72
2022/03/28 03:18:19;;;;;;;3.17;2.35;;;5.70;99.90;;;;;;5005534;28;20061;-72
2022/03/28 03:20:45;;;;;;;0.75;0.75;;;5.70;99.90;;;;;;4995544;28;20037;-72
2022/03/28 03:23:10;;;;;;;1.38;1.33;;;5.70;99.90;;;;;;5000492;28;20029;-72
2022/03/28 03:25:36;;;;;;;1.30;1.10;;;5.70;99.90;;;;;;4994854;28;20057;-72
2022/03/28 03:28:03;;;;;;;2.35;2.15;;;5.70;99.90;;;;;;4995848;28;20049;-72
2022/03/28 03:30:29;;;;;;;0.90;0.90;;;5.70;99.90;;;;;;4995815;28;20034;-72
2022/03/28 03:32:54;;;;;;;2.50;2.17;;;5.70;99.90;;;;;;5012007;28;20106;-72
2022/03/28 03:35:21;;;;;;;11.25;1.83;;;5.70;99.90;;;;;;5010555;28;20088;-72
2022/03/28 03:37:46;;;;;;;1.60;1.50;;;5.70;99.90;;;;;;5028129;28;20050;-72
2022/03/28 03:40:12;;;;;;;15.43;1.77;;;5.70;99.90;;;;;;4995516;28;20053;-72
2022/03/28 03:42:39;;;;;;;0.82;0.82;;;5.70;99.90;;;;;;4998056;28;20050;-72
2022/03/28 03:45:05;;;;;;;2.20;2.00;;;5.60;99.90;;;;;;5027703;28;20144;-72
2022/03/28 03:47:31;;;;;;;1.98;1.88;;;5.60;99.90;;;;;;5001664;28;20080;-72
2022/03/28 03:49:57;;;;;;;0.68;0.68;;;5.60;99.90;;;;;;5010046;28;20497;-72
2022/03/28 03:52:23;;;;;;;9.52;2.15;;;5.60;99.90;;;;;;5010363;28;20049;-72
2022/03/28 03:54:49;;;;;;;1.40;1.10;;;5.60;99.90;;;;;;4995356;28;20045;-72
2022/03/28 03:57:14;;;;;;;1.40;1.40;;;5.60;99.90;;;;;;5011517;28;20048;-72
2022/03/28 03:59:40;;;;;;;0.50;0.50;;;5.60;99.90;;;;;;4995095;28;20084;-72
2022/03/28 04:02:06;;;;;;;1.30;1.25;;;5.60;99.90;;;;;;5007631;28;20416;-72
2022/03/28 04:04:31;;;;;;;2.08;1.58;;;5.70;99.90;;;;;;4993213;28;20092;-72
2022/03/28 04:06:57;;;;;;;0.52;0.52;;;5.70;99.90;;;;;;4992381;28;20456;-72
2022/03/28 04:09:23;;;;;;;0.60;0.60;;;5.70;99.90;;;;;;5004742;28;20148;-72
2022/03/28 04:11:48;;;;;;;0.47;0.47;;;5.60;99.90;;;;;;5005310;28;20128;-73
2022/03/28 04:14:15;;;;;;;2.70;2.42;;;5.60;99.90;;;;;;4994147;28;20040;-72
2022/03/28 04:16:41;;;;;;;2.50;1.90;;;5.60;99.90;;;;;;5009436;28;20045;-72
2022/03/28 04:19:07;;;;;;;1.73;1.63;;;5.60;99.90;;;;;;5014784;28;20054;-72
2022/03/28 04:21:32;;;;;;;0.93;0.93;;;5.60;99.90;;;;;;5019467;28;20045;-72
2022/03/28 04:23:58;;;;;;;0.60;0.60;;;5.60;99.90;;;;;;5018575;28;20045;-72
2022/03/28 04:26:24;;;;;;;5.50;3.00;;;5.60;99.90;;;;;;5011383;28;20068;-72
2022/03/28 04:28:50;;;;;;;1.15;1.15;;;5.70;99.90;;;;;;5010951;28;20033;-72
2022/03/28 04:31:16;;;;;;;3.40;3.00;;;5.70;99.90;;;;;;4992425;28;20041;-72
2022/03/28 04:33:42;;;;;;;2.63;2.30;;;5.60;99.90;;;;;;4994489;28;20087;-72
2022/03/28 04:36:08;;;;;;;2.97;2.47;;;5.60;99.90;;;;;;5010226;28;20456;-72
2022/03/28 04:38:34;;;;;;;5.43;3.33;;;5.50;99.90;;;;;;5010025;28;20037;-72
2022/03/28 04:41:00;;;;;;;2.63;2.40;;;5.50;99.90;;;;;;5011430;28;20048;-72
2022/03/28 04:43:25;;;;;;;2.72;2.47;;;5.50;99.90;;;;;;4993500;28;20080;-72
2022/03/28 04:45:51;;;;;;;5.70;3.40;;;5.50;99.90;;;;;;4992980;28;20048;-72
2022/03/28 04:48:17;;;;;;;1.60;1.50;;;5.50;99.90;;;;;;4994868;28;20041;-73
2022/03/28 04:50:42;;;;;;;1.05;1.05;;;5.50;99.90;;;;;;4992980;28;20041;-73
2022/03/28 04:53:08;;;;;;;3.97;2.35;;;5.50;99.90;;;;;;5009458;28;20048;-72
2022/03/28 04:55:34;;;;;;;1.73;1.65;;;5.50;99.90;;;;;;4994491;28;20107;-72
2022/03/28 04:58:00;;;;;;;1.40;1.33;;;5.50;99.90;;;;;;4990929;28;20497;-73
2022/03/28 05:00:26;;;;;;;9.10;4.25;;;5.40;99.90;;;;;;5010625;28;20425;-71
2022/03/28 05:02:51;;;;;;;4.72;3.47;;;5.40;99.90;;;;;;4994640;28;20056;-72
2022/03/28 05:05:17;;;;;;;0.77;0.77;;;5.40;99.90;;;;;;4994875;28;20048;-72
2022/03/28 05:07:43;;;;;;;0.50;0.50;;;5.40;99.90;;;;;;5010451;28;20056;-72
2022/03/28 05:10:09;;;;;;;8.20;2.47;;;5.40;99.90;;;;;;4994279;28;20401;-71
2022/03/28 05:12:35;;;;;;;2.55;1.95;;;5.30;99.90;;;;;;4993139;28;20458;-72
2022/03/28 05:15:02;;;;;;;1.75;1.27;;;5.30;99.90;;;;;;4985686;28;20049;-72
2022/03/28 05:17:29;;;;;;;0.45;0.45;;;5.30;99.90;;;;;;4994034;28;20080;-72
2022/03/28 05:19:56;;;;;;;5.05;2.83;;;5.30;99.90;;;;;;4993516;28;20120;-72
2022/03/28 05:22:23;;;;;;;0.85;0.85;;;5.30;99.90;;;;;;5005400;28;20041;-72
2022/03/28 05:24:50;;;;;;;1.42;1.10;;;5.20;99.90;;;;;;5009037;28;20060;-72
2022/03/28 05:27:16;;;;;;;0.40;0.40;;;5.10;99.90;;;;;;4992041;28;20107;-72
2022/03/28 05:29:42;;;;;;;0.50;0.50;;;5.10;99.90;;;;;;5009063;28;20128;-72
2022/03/28 05:32:08;;;;;;;1.38;1.17;;;5.00;99.90;;;;;;4994514;28;20045;-71
2022/03/28 05:34:34;;;;;;;1.77;1.65;;;5.00;99.90;;;;;;4993604;28;20037;-72
2022/03/28 05:37:01;;;;;;;1.98;1.77;;;5.00;99.90;;;;;;5010331;28;20055;-72
2022/03/28 05:39:27;;;;;;;2.63;1.25;;;5.00;99.90;;;;;;5010112;28;20075;-72
2022/03/28 05:41:54;;;;;;;2.00;1.88;;;5.00;99.90;;;;;;5010133;28;20053;-72
2022/03/28 05:44:20;;;;;;;2.70;2.13;;;5.00;99.90;;;;;;5010264;28;20041;-71
2022/03/28 05:46:48;;;;;;;1.10;1.10;;;5.00;99.90;;;;;;4993728;28;20529;-71
2022/03/28 05:49:14;;;;;;;2.28;2.08;;;5.00;99.90;;;;;;4993651;28;20121;-71
2022/03/28 05:51:40;;;;;;;1.48;1.38;;;5.00;99.90;;;;;;4993561;28;20041;-71
2022/03/28 05:54:06;;;;;;;1.77;1.35;;;5.00;99.90;;;;;;5005914;28;20391;-72
2022/03/28 05:56:31;;;;;;;1.70;1.60;;;5.10;99.90;;;;;;4995983;28;20037;-72
2022/03/28 05:58:57;;;;;;;0.40;0.40;;;5.10;99.90;;;;;;5024070;28;20042;-72
2022/03/28 06:01:23;;;;;;;2.92;1.75;;;5.10;99.90;;;;;;4991493;28;20095;-72
2022/03/28 06:03:49;;;;;;;1.02;1.02;;;5.10;99.90;;;;;;5011969;28;20045;-72
2022/03/28 06:06:15;;;;;;;0.50;0.50;;;5.10;99.90;;;;;;4996362;28;20033;-72
2022/03/28 06:08:41;;;;;;;0.70;0.70;;;5.20;99.90;;;;;;5007536;28;20096;-72
2022/03/28 06:11:06;;;;;;;1.00;0.85;;;5.20;99.90;;;;;;4997943;28;20080;-72
2022/03/28 06:13:32;;;;;;;2.40;2.15;;;5.20;99.90;;;;;;4996307;28;20037;-72
2022/03/28 06:15:59;;;;;;;1.45;1.35;;;5.30;99.90;;;;;;5013594;28;20397;-72
2022/03/28 06:18:26;;;;;;;3.33;2.00;;;5.30;99.90;;;;;;5006896;28;20405;-72
2022/03/28 06:20:52;;;;;;;1.27;1.15;;;5.30;99.90;;;;;;4994376;28;20038;-72
2022/03/28 06:23:17;;;;;;;1.25;1.20;;;5.20;99.90;;;;;;5024069;28;20044;-72
2022/03/28 06:25:43;;;;;;;0.95;0.95;;;5.30;99.90;;;;;;4997279;28;20129;-72
2022/03/28 06:28:10;;;;;;;1.00;1.00;;;5.20;99.90;;;;;;5003454;28;20480;-72
2022/03/28 06:30:36;;;;;;;0.77;0.77;;;5.20;99.90;;;;;;5010415;28;20085;-72
2022/03/28 06:33:01;;;;;;;2.40;1.77;;;5.20;99.90;;;;;;5009932;28;20065;-72
2022/03/28 06:35:27;;;;;;;3.40;1.73;;;5.30;99.90;;;;;;5010061;28;20042;-72
2022/03/28 06:37:53;;;;;;;5.03;3.42;;;5.30;99.90;;;;;;4993159;28;20580;-72
2022/03/28 06:40:20;;;;;;;4.28;2.58;;;5.30;99.90;;;;;;4993540;28;20056;-72
2022/03/28 06:42:45;;;;;;;1.10;1.10;;;5.30;99.90;;;;;;5009662;28;20041;-72
2022/03/28 06:45:12;;;;;;;2.75;2.40;;;5.40;99.90;;;;;;4993719;28;20096;-72
2022/03/28 06:47:38;;;;;;;3.00;2.47;;;5.40;99.90;;;;;;5010042;28;20939;-72
2022/03/28 06:50:05;;;;;;;2.88;2.33;;;5.40;99.90;;;;;;4996449;28;20367;-72
2022/03/28 06:52:32;;;;;;;2.90;2.42;;;5.50;99.90;;;;;;5007351;28;20077;-72
2022/03/28 06:54:58;;;;;;;1.05;1.00;;;5.50;99.90;;;;;;4983942;28;20038;-72
2022/03/28 06:57:24;;;;;;;0.40;0.40;;;5.50;99.90;;;;;;4993145;28;20038;-72
2022/03/28 06:59:49;;;;;;;6.57;3.35;;;5.50;99.90;;;;;;4988123;28;20617;-72
2022/03/28 07:02:15;;;;;;;0.90;0.90;;;5.50;99.90;;;;;;4990444;28;20050;-72
2022/03/28 07:04:41;;;;;;;2.60;2.40;;;5.50;99.90;;;;;;4989521;28;20042;-72
2022/03/28 07:07:08;;;;;;;2.22;2.08;;;5.50;99.90;;;;;;5007267;28;20091;-72
2022/03/28 07:09:34;;;;;;;3.80;2.70;;;5.60;99.90;;;;;;4993297;28;20053;-73
2022/03/28 07:12:00;;;;;;;0.82;0.82;;;5.60;99.90;;;;;;4993217;28;20038;-72
2022/03/28 07:14:26;;;;;;;4.10;3.17;;;5.60;99.90;;;;;;5007047;28;20044;-72
2022/03/28 07:16:52;;;;;;;2.15;1.73;;;5.60;99.90;;;;;;4990304;28;20050;-71
2022/03/28 07:19:18;;;;;;;3.50;2.78;;;5.60;99.90;;;;;;5002242;28;20042;-72
2022/03/28 07:21:44;;;;;;;4.47;1.88;;;5.60;99.90;;;;;;5004479;28;20046;-72
2022/03/28 07:24:10;;;;;;;1.45;1.38;;;5.70;99.90;;;;;;4990347;28;20056;-71
2022/03/28 07:26:35;;;;;;;1.40;1.30;;;5.70;99.90;;;;;;5009449;28;20509;-72
2022/03/28 07:29:02;;;;;;;2.28;2.05;;;5.70;99.90;;;;;;4998455;28;20107;-71
2022/03/28 07:31:29;;;;;;;28.02;4.18;;;5.80;99.90;;;;;;5002927;28;20042;-71
2022/03/28 07:34:29;;;;;;;1.58;1.48;;;5.80;99.90;;;;;;5000127;28;20399;-71
2022/03/28 07:36:40;;;;;;;1.88;1.77;;;5.80;99.90;;;;;;5006863;28;20073;-72
2022/03/28 07:39:06;;;;;;;16.30;1.77;;;5.90;99.90;;;;;;4992437;28;20089;-72
2022/03/28 07:41:31;;;;;;;0.95;0.95;;;5.90;99.90;;;;;;4976783;28;20057;-73
2022/03/28 07:43:57;;;;;;;1.17;1.02;;;5.90;99.90;;;;;;5005276;28;20479;-72
2022/03/28 07:46:22;;;;;;;2.55;2.30;;;6.00;99.90;;;;;;5009350;28;20482;-72
2022/03/28 07:48:48;;;;;;;1.65;1.55;;;6.00;99.90;;;;;;4992775;28;20038;-72
2022/03/28 07:51:14;;;;;;;3.63;2.78;;;6.00;99.90;;;;;;4992342;28;20050;-73
2022/03/28 07:53:40;;;;;;;2.83;1.90;;;6.10;99.90;;;;;;4992926;28;20038;-72
2022/03/28 07:56:05;;;;;;;1.02;1.02;;;6.10;99.90;;;;;;5007577;28;20046;-73
2022/03/28 07:58:31;;;;;;;0.65;0.65;;;6.10;99.90;;;;;;4988987;28;20042;-73
2022/03/28 08:00:57;;;;;;;4.10;3.00;;;6.20;99.90;;;;;;5007467;28;20083;-72
2022/03/28 08:03:22;;;;;;;1.85;1.60;;;6.20;99.90;;;;;;5029881;28;20037;-72
2022/03/28 08:05:48;;;;;;;2.03;1.45;;;6.20;99.90;;;;;;5000481;28;20045;-72
2022/03/28 08:08:13;;;;;;;2.70;2.50;;;6.20;99.90;;;;;;5000468;28;20041;-72
2022/03/28 08:10:39;;;;;;;3.83;3.42;;;6.30;99.90;;;;;;5010729;28;20114;-71
2022/03/28 08:13:05;;;;;;;1.92;1.50;;;6.30;99.90;;;;;;4998643;28;20560;-71
2022/03/28 08:15:31;;;;;;;9.38;5.40;;;6.30;99.90;;;;;;5011552;28;20091;-72
2022/03/28 08:18:00;;;;;;;2.50;1.55;;;6.40;99.90;;;;;;4994491;28;20041;-72
2022/03/28 08:20:25;;;;;;;9.02;6.22;;;6.40;99.90;;;;;;4995174;28;20069;-72
2022/03/28 08:22:51;;;;;;;1.13;1.13;;;6.40;99.90;;;;;;5011731;28;20501;-71
2022/03/28 08:25:22;;;;;;;1.80;1.65;;;6.40;99.90;;;;;;5007619;28;20419;-71
2022/03/28 08:27:48;;;;;;;0.70;0.70;;;6.50;99.90;;;;;;5006073;28;20076;-72
2022/03/28 08:30:14;;;;;;;1.77;1.63;;;6.60;99.90;;;;;;4994370;28;20029;-72
2022/03/28 08:32:41;;;;;;;1.42;1.33;;;6.60;99.90;;;;;;5011425;28;20034;-72
2022/03/28 08:35:08;;;;;;;0.52;0.52;;;6.60;99.90;;;;;;5011297;28;20045;-72
2022/03/28 08:37:34;;;;;;;0.70;0.70;;;6.60;99.90;;;;;;4995065;28;20056;-72
2022/03/28 08:39:59;;;;;;;0.75;0.75;;;6.70;99.90;;;;;;4995253;28;20413;-72
2022/03/28 08:42:26;;;;;;;3.28;1.70;;;6.80;99.90;;;;;;5010744;28;20089;-72
2022/03/28 08:44:52;;;;;;;0.45;0.45;;;6.80;99.90;;;;;;5011429;28;20104;-72
2022/03/28 08:47:21;;;;;;;1.15;1.15;;;6.90;99.90;;;;;;5011243;28;20049;-72
2022/03/28 08:49:49;;;;;;;0.50;0.50;;;7.00;99.90;;;;;;4995181;28;20370;-72
2022/03/28 08:52:16;;;;;;;0.90;0.90;;;7.00;99.90;;;;;;5011163;28;20456;-72
2022/03/28 08:54:42;;;;;;;5.70;4.60;;;7.10;99.90;;;;;;5011113;28;20096;-72
2022/03/28 08:57:08;;;;;;;5.20;3.97;;;7.10;99.90;;;;;;5010001;28;20049;-72
2022/03/28 08:59:33;;;;;;;6.72;4.43;;;7.10;99.90;;;;;;5010069;28;20037;-72
2022/03/28 09:01:59;;;;;;;2.10;1.42;;;7.10;99.90;;;;;;4985605;28;20037;-72
2022/03/28 09:04:25;;;;;;;0.50;0.50;;;7.10;99.90;;;;;;4991175;28;20053;-73
2022/03/28 09:06:50;;;;;;;0.73;0.73;;;7.10;99.90;;;;;;5010693;28;20037;-72
2022/03/28 09:09:28;;;;;;;1.40;1.30;;;7.10;99.90;;;;;;4995096;28;20528;-73
2022/03/28 09:12:05;;;;;;;4.90;1.98;;;7.20;99.90;;;;;;5010741;28;20562;-72
2022/03/28 09:14:36;;;;;;;0.40;0.40;;;7.30;99.90;;;;;;5007271;28;20057;-72
2022/03/28 09:17:12;;;;;;;2.00;1.67;;;7.40;99.90;;;;;;5014821;28;20053;-73
2022/03/28 09:19:55;;;;;;;8.00;4.22;;;7.50;99.90;;;;;;4994243;28;20097;-72
2022/03/28 09:22:24;;;;;;;0.93;0.93;;;7.60;99.90;;;;;;5010569;28;20049;-72
2022/03/28 09:24:55;;;;;;;2.45;2.25;;;7.60;99.90;;;;;;5010798;28;20058;-72
2022/03/28 09:27:29;;;;;;;0.73;0.73;;;7.70;99.90;;;;;;5024933;28;20134;-73
2022/03/28 09:30:02;;;;;;;8.18;4.22;;;7.80;99.90;;;;;;5000977;28;20091;-73
2022/03/28 09:32:30;;;;;;;3.20;2.65;;;7.80;99.90;;;;;;5000239;28;20094;-72
2022/03/28 09:35:03;;;;;;;0.95;0.95;;;7.90;99.90;;;;;;5015406;28;20049;-73
2022/03/28 09:37:29;;;;;;;7.70;3.63;;;7.90;99.90;;;;;;4999429;28;20053;-72
2022/03/28 09:39:55;;;;;;;3.90;3.50;;;8.00;99.90;;;;;;5017123;28;20098;-72
2022/03/28 09:42:20;;;;;;;4.18;3.00;;;8.00;99.90;;;;;;5012548;28;20038;-72
2022/03/28 09:44:49;;;;;;;12.52;5.80;;;8.00;99.90;;;;;;5002380;28;20575;-73
2022/03/28 09:47:21;;;;;;;4.38;4.03;;;8.10;99.90;;;;;;5000181;28;20041;-73
2022/03/28 09:49:49;;;;;;;1.83;1.73;;;8.20;99.90;;;;;;5000646;28;20076;-73
2022/03/28 09:52:17;;;;;;;0.98;0.98;;;8.10;99.90;;;;;;5017028;28;20041;-72
2022/03/28 09:54:47;;;;;;;5.35;2.40;;;8.20;99.90;;;;;;4994922;28;20068;-72
2022/03/28 09:57:13;;;;;;;3.47;2.80;;;8.30;99.90;;;;;;5013893;28;20045;-73
2022/03/28 09:59:40;;;;;;;4.95;3.85;;;8.50;99.90;;;;;;5016761;28;20089;-72
2022/03/28 10:02:21;;;;;;;3.67;2.92;;;8.60;99.90;;;;;;5005428;28;20071;-73
2022/03/28 10:04:49;;;;;;;0.30;0.30;;;8.80;99.90;;;;;;5011037;28;20085;-73
2022/03/28 10:07:16;;;;;;;1.33;1.33;;;8.80;99.90;;;;;;5012600;28;20052;-73
2022/03/28 10:09:42;;;;;;;0.80;0.80;;;8.90;99.90;;;;;;4994096;28;20484;-73
2022/03/28 10:12:08;;;;;;;0.63;0.63;;;9.00;99.90;;;;;;5003908;28;20204;-73
2022/03/28 10:14:35;;;;;;;0.70;0.70;;;9.10;99.90;;;;;;5004972;28;20705;-72
2022/03/28 10:17:03;;;;;;;0.98;0.98;;;9.20;99.90;;;;;;4999469;28;20119;-72
2022/03/28 10:19:33;;;;;;;0.77;0.77;;;9.30;99.90;;;;;;4999730;28;20043;-72
2022/03/28 10:22:02;;;;;;;5.07;3.88;;;9.40;99.90;;;;;;5023226;28;20049;-72
2022/03/28 10:24:30;;;;;;;3.88;1.08;;;9.50;99.90;;;;;;4997432;28;20515;-72
2022/03/28 10:26:57;;;;;;;3.45;2.70;;;9.50;99.90;;;;;;5014784;28;20453;-72
2022/03/28 10:29:32;;;;;;;0.30;0.30;;;9.40;99.90;;;;;;5023466;28;20041;-72
2022/03/28 10:31:59;;;;;;;4.43;2.88;;;9.40;99.90;;;;;;5015202;28;20045;-72
2022/03/28 10:34:48;;;;;;;1.35;1.27;;;9.60;99.90;;;;;;5008363;28;20045;-72
2022/03/28 10:37:33;;;;;;;3.30;3.00;;;9.70;99.90;;;;;;5032179;28;20049;-72
2022/03/28 10:40:30;;;;;;;1.45;1.35;;;9.80;99.90;;;;;;5009601;28;20045;-72
2022/03/28 10:43:09;;;;;;;3.22;0.75;;;9.80;99.90;;;;;;5009887;28;20049;-72
2022/03/28 10:45:35;;;;;;;0.20;0.20;;;9.90;99.90;;;;;;5010168;28;20122;-72
2022/03/28 10:48:01;;;;;;;0.80;0.80;;;10.00;99.90;;;;;;5008922;28;20488;-72
2022/03/28 10:50:30;;;;;;;2.05;1.80;;;10.10;99.90;;;;;;5009268;28;20251;-72
2022/03/28 10:53:10;;;;;;;1.02;0.98;;;10.10;99.90;;;;;;5009330;28;20393;-72
2022/03/28 10:55:50;;;;;;;0.80;0.80;;;10.20;99.90;;;;;;4980065;28;20049;-73
2022/03/28 10:58:22;;;;;;;2.72;1.95;;;10.20;99.90;;;;;;4999566;28;20049;-73
2022/03/28 11:01:09;;;;;;;1.60;1.50;;;10.30;99.90;;;;;;5005358;28;20133;-72
2022/03/28 11:03:37;;;;;;;0.63;0.63;;;10.40;99.90;;;;;;5001840;28;20037;-72
2022/03/28 11:06:04;;;;;;;0.68;0.43;;;10.30;99.90;;;;;;5006568;28;20053;-71
2022/03/28 11:08:38;;;;;;;0.38;0.38;;;10.30;99.90;;;;;;5006070;28;20042;-72
2022/03/28 11:11:23;;;;;;;2.28;2.17;;;10.50;99.90;;;;;;4989409;28;20448;-72
2022/03/28 11:14:03;;;;;;;1.50;1.40;;;10.50;99.90;;;;;;4999214;28;20052;-72
2022/03/28 11:16:44;;;;;;;3.85;2.35;;;10.60;99.90;;;;;;5006748;28;20045;-72
2022/03/28 11:19:19;;;;;;;6.13;4.35;;;10.60;99.90;;;;;;5013488;28;20815;-73
2022/03/28 11:22:03;;;;;;;0.90;0.90;;;10.60;99.90;;;;;;5012376;28;20053;-73
2022/03/28 11:24:46;;;;;;;5.10;2.97;;;10.60;99.90;;;;;;5011453;28;20088;-73
2022/03/28 11:27:15;;;;;;;0.40;0.40;;;10.70;99.90;;;;;;5000852;28;20050;-73
2022/03/28 11:29:41;;;;;;;1.10;1.08;;;10.80;99.90;;;;;;4993443;28;20049;-73
2022/03/28 11:32:18;;;;;;;12.00;1.23;;;10.80;99.90;;;;;;5006308;28;20512;-73
2022/03/28 11:34:53;;;;;;;1.40;1.30;;;10.90;99.90;;;;;;4993475;28;20469;-73
2022/03/28 11:37:22;;;;;;;1.55;0.93;;;11.20;99.90;;;;;;5009357;28;20168;-73
2022/03/28 11:39:59;;;;;;;1.13;1.13;;;11.40;99.90;;;;;;5011641;28;20076;-73
2022/03/28 11:42:30;;;;;;;1.55;1.45;;;11.50;99.90;;;;;;5006491;28;20465;-73
2022/03/28 11:45:06;;;;;;;2.40;2.00;;;11.50;99.90;;;;;;5003823;28;20054;-72
2022/03/28 11:47:35;;;;;;;1.77;1.67;;;11.60;99.90;;;;;;4989210;28;20038;-73
2022/03/28 11:50:04;;;;;;;2.90;2.60;;;11.80;99.90;;;;;;5012594;28;20039;-73
2022/03/28 11:52:31;;;;;;;0.88;0.88;;;12.00;99.90;;;;;;4994191;28;20230;-73
2022/03/28 11:54:58;;;;;;;2.05;1.90;;;12.10;99.90;;;;;;4992335;28;20042;-73
2022/03/28 12:00:22;;;;;;;19.05;4.65;;;12.40;99.90;;;;;;5011854;28;20045;-73
2022/03/28 12:02:56;;;;;;;1.25;1.25;;;12.60;99.90;;;;;;5012423;28;20049;-72
2022/03/28 12:05:26;;;;;;;4.93;2.83;;;12.50;99.90;;;;;;5012469;28;20056;-72
2022/03/28 12:07:52;;;;;;;0.32;0.32;;;12.60;99.90;;;;;;4992650;28;20050;-72
2022/03/28 12:10:22;;;;;;;6.60;3.22;;;12.80;99.90;;;;;;4995624;28;20551;-72
2022/03/28 12:12:48;;;;;;;7.20;0.98;;;13.10;99.90;;;;;;5008960;28;20052;-72
2022/03/28 12:15:23;;;;;;;2.80;2.55;;;13.40;99.90;;;;;;4992629;28;20038;-72
2022/03/28 12:17:53;;;;;;;8.75;5.00;;;13.40;99.90;;;;;;5008486;28;20046;-72
2022/03/28 12:20:23;;;;;;;0.77;0.75;;;13.30;99.90;;;;;;4990223;28;20049;-72
2022/03/28 12:22:49;;;;;;;9.85;3.63;;;13.20;99.90;;;;;;5008669;28;20069;-72
2022/03/28 12:25:53;;;;;;;0.40;0.40;;;13.00;99.90;;;;;;5008159;28;20069;-72
2022/03/28 12:28:33;;;;;;;0.77;0.77;;;12.80;99.90;;;;;;4986412;28;20080;-73
2022/03/28 12:30:59;;;;;;;0.85;0.85;;;12.70;99.90;;;;;;5008351;28;20493;-73
2022/03/28 12:33:40;;;;;;;0.35;0.35;;;12.80;99.90;;;;;;5008398;28;20863;-73
2022/03/28 12:36:06;;;;;;;8.13;3.55;;;12.90;99.90;;;;;;5016234;28;20128;-73
2022/03/28 12:38:38;;;;;;;1.65;1.40;;;12.90;99.90;;;;;;5011009;28;20041;-73
2022/03/28 12:41:15;;;;;;;6.53;2.75;;;12.90;99.90;;;;;;4995257;28;20049;-72
2022/03/28 12:43:46;;;;;;;13.07;5.88;;;13.10;99.90;;;;;;4995424;28;20148;-72
2022/03/28 12:46:16;;;;;;;1.50;1.40;;;13.40;99.90;;;;;;4996860;28;20052;-73
2022/03/28 12:48:46;;;;;;;5.22;4.00;;;13.60;99.90;;;;;;4991913;28;20129;-72
2022/03/28 12:51:35;;;;;;;2.20;1.98;;;13.50;99.90;;;;;;4991922;28;20050;-72
2022/03/28 12:54:11;;;;;;;2.08;1.65;;;13.20;99.90;;;;;;5010201;28;20073;-73
2022/03/28 12:56:56;;;;;;;3.00;1.85;;;13.00;99.90;;;;;;4995508;28;20052;-72
2022/03/28 12:59:30;;;;;;;4.30;3.20;;;13.10;99.90;;;;;;5011077;28;20044;-72
2022/03/28 13:02:08;;;;;;;1.27;1.17;;;13.30;99.90;;;;;;5007915;28;20838;-72